Time;durP1;ratioP1;P1;durP2;ratioP2;P2;SDS_P1;SDS_P2;PMS_P1;PMS_P2;Temp;Humidity;BMP_temperature;BMP_pressure;BME280_temperature;BME280_humidity;BME280_pressure;Samples;Min_cycle;Max_cycle;Signal;HPM_P1;HPM_P2
2023/10/05 00:01:02;;;;;;;3.33;2.43;;;;;;;14.03;94.26;101808.78;6293022;28;20223;-72
2023/10/05 00:04:26;;;;;;;6.67;2.53;;;;;;;14.09;94.16;101805.53;6304705;28;20257;-72
2023/10/05 00:07:48;;;;;;;4.20;2.53;;;;;;;14.07;94.08;101800.25;6304106;28;20235;-72
2023/10/05 00:11:10;;;;;;;5.03;2.87;;;;;;;14.04;94.16;101797.78;6310914;28;20230;-72
2023/10/05 00:14:30;;;;;;;4.73;2.50;;;;;;;14.08;94.14;101807.38;6303150;28;20223;-72
2023/10/05 00:17:52;;;;;;;7.83;2.87;;;;;;;14.12;93.83;101802.56;6306106;28;20611;-71
2023/10/05 00:21:15;;;;;;;3.93;2.70;;;;;;;14.08;94.28;101803.84;6289512;28;20317;-72
2023/10/05 00:24:37;;;;;;;8.20;3.37;;;;;;;14.04;94.26;101778.81;6303433;28;20230;-71
2023/10/05 00:27:58;;;;;;;5.67;4.20;;;;;;;14.07;94.11;101796.69;6302422;28;20238;-71
2023/10/05 00:31:23;;;;;;;4.33;2.07;;;;;;;14.04;94.40;101792.38;6291430;28;20227;-72
2023/10/05 00:34:51;;;;;;;8.07;2.93;;;;;;;14.06;94.24;101786.84;6301546;28;20256;-72
2023/10/05 00:38:14;;;;;;;8.37;3.07;;;;;;;14.06;94.46;101767.84;6304341;28;20297;-71
2023/10/05 00:41:37;;;;;;;5.00;2.67;;;;;;;14.07;94.58;101781.28;6309132;28;20793;-71
2023/10/05 00:45:01;;;;;;;4.43;2.23;;;;;;;14.05;94.80;101779.69;6281915;28;20331;-71
2023/10/05 00:48:29;;;;;;;7.10;2.50;;;;;;;14.08;94.69;101763.16;6292399;28;20230;-72
2023/10/05 00:52:02;;;;;;;4.70;2.37;;;;;;;14.08;94.79;101757.72;6287228;28;20229;-71
2023/10/05 00:55:25;;;;;;;5.93;2.27;;;;;;;14.05;94.83;101750.72;6288248;28;20226;-71
2023/10/05 00:58:52;;;;;;;2.33;1.80;;;;;;;14.04;94.89;101743.56;6309878;28;20978;-73
2023/10/05 01:02:20;;;;;;;6.70;2.47;;;;;;;14.02;94.75;101759.13;6302915;28;20604;-72
2023/10/05 01:05:55;;;;;;;3.17;2.10;;;;;;;14.03;95.17;101746.44;6295874;28;20232;-72
2023/10/05 01:09:39;;;;;;;4.20;2.00;;;;;;;14.05;95.17;101758.00;6310326;28;20623;-72
2023/10/05 01:13:00;;;;;;;3.37;2.33;;;;;;;14.06;95.17;101740.75;6292685;28;20254;-73
2023/10/05 01:16:22;;;;;;;2.40;2.13;;;;;;;14.04;95.17;101746.28;6305189;28;20254;-72
2023/10/05 01:19:44;;;;;;;3.47;3.17;;;;;;;14.00;95.15;101744.84;6304307;28;20230;-73
2023/10/05 01:23:06;;;;;;;4.70;3.03;;;;;;;14.03;95.12;101741.00;6307095;28;20223;-71
2023/10/05 01:26:28;;;;;;;4.00;2.27;;;;;;;13.96;95.37;101739.81;6288210;28;20231;-72
2023/10/05 01:29:49;;;;;;;7.33;3.57;;;;;;;13.99;95.54;101737.72;6304245;28;20234;-72
2023/10/05 01:33:11;;;;;;;4.80;2.70;;;;;;;13.97;95.43;101739.72;6289585;28;20234;-71
2023/10/05 01:36:34;;;;;;;4.13;2.30;;;;;;;13.94;95.54;101730.97;6298536;28;20234;-72
2023/10/05 01:39:59;;;;;;;5.07;2.73;;;;;;;13.91;95.66;101726.72;6308924;28;20231;-71
2023/10/05 01:43:19;;;;;;;3.23;2.43;;;;;;;13.90;95.95;101724.97;6285803;28;20267;-71
2023/10/05 01:46:41;;;;;;;3.33;1.77;;;;;;;13.93;95.71;101730.13;6283738;28;20309;-72
2023/10/05 01:50:02;;;;;;;3.13;1.97;;;;;;;13.90;96.06;101746.66;6299579;28;20235;-72
2023/10/05 01:53:23;;;;;;;4.53;2.10;;;;;;;13.90;95.97;101719.56;6303170;28;20287;-72
2023/10/05 01:56:47;;;;;;;3.23;1.70;;;;;;;13.89;95.69;101725.13;6303506;28;20230;-72
2023/10/05 02:00:14;;;;;;;4.23;2.30;;;;;;;13.89;96.18;101712.44;6293431;28;20705;-72
2023/10/05 02:03:36;;;;;;;8.00;2.30;;;;;;;13.87;96.24;101710.84;6312611;28;20222;-73
2023/10/05 02:06:57;;;;;;;3.93;2.07;;;;;;;13.87;96.31;101706.25;6308013;28;20258;-72
2023/10/05 02:10:20;;;;;;;4.80;2.27;;;;;;;13.85;96.37;101707.41;6301416;28;20244;-72
2023/10/05 02:13:43;;;;;;;3.73;2.13;;;;;;;13.85;96.27;101692.00;6292428;28;20230;-72
2023/10/05 02:17:04;;;;;;;3.07;2.00;;;;;;;13.84;96.46;101694.84;6294665;28;20230;-72
2023/10/05 02:20:41;;;;;;;4.47;2.27;;;;;;;13.84;96.59;101687.59;6295937;28;20322;-71
2023/10/05 02:24:10;;;;;;;4.57;3.13;;;;;;;13.83;96.50;101693.97;6306035;28;20239;-70
2023/10/05 02:27:31;;;;;;;4.17;2.33;;;;;;;13.83;96.75;101698.56;6292373;28;20222;-70
2023/10/05 02:30:57;;;;;;;2.30;2.00;;;;;;;13.77;96.77;101688.28;6312860;28;20230;-71
2023/10/05 02:34:20;;;;;;;5.53;2.87;;;;;;;13.80;96.76;101686.13;6289230;28;20231;-71
2023/10/05 02:37:41;;;;;;;3.67;2.20;;;;;;;13.84;96.78;101676.72;6308807;28;20222;-72
2023/10/05 02:41:04;;;;;;;6.37;2.77;;;;;;;13.82;96.92;101677.88;6291190;28;20235;-71
2023/10/05 02:44:29;;;;;;;9.37;2.67;;;;;;;13.78;97.03;101687.25;6292709;28;20229;-71
2023/10/05 02:47:54;;;;;;;3.47;2.43;;;;;;;13.72;97.20;101685.97;6294474;28;20222;-71
2023/10/05 02:51:18;;;;;;;5.33;2.43;;;;;;;13.71;97.44;101676.09;6311822;28;20218;-71
2023/10/05 02:54:39;;;;;;;4.00;2.67;;;;;;;13.71;97.60;101665.28;6289034;28;20226;-71
2023/10/05 02:58:00;;;;;;;4.57;1.90;;;;;;;13.68;97.73;101664.69;6294028;28;20222;-72
2023/10/05 03:01:21;;;;;;;3.87;2.30;;;;;;;13.70;97.96;101670.84;6305788;28;20238;-71
2023/10/05 03:04:48;;;;;;;11.50;4.20;;;;;;;13.70;98.19;101660.00;6282368;28;20608;-71
2023/10/05 03:08:13;;;;;;;2.83;2.07;;;;;;;13.72;98.19;101672.41;6292181;28;20222;-71
2023/10/05 03:11:37;;;;;;;5.30;2.23;;;;;;;13.74;98.08;101677.69;6305202;28;20291;-71
2023/10/05 03:15:04;;;;;;;4.50;2.57;;;;;;;13.76;98.26;101670.28;6291034;28;20231;-71
2023/10/05 03:18:27;;;;;;;4.73;2.10;;;;;;;13.75;98.41;101666.72;6292407;28;20223;-71
2023/10/05 03:21:50;;;;;;;5.53;2.37;;;;;;;13.71;98.46;101665.28;6292695;28;20226;-71
2023/10/05 03:25:14;;;;;;;9.83;2.57;;;;;;;13.75;98.52;101663.16;6306456;28;20227;-72
2023/10/05 03:28:36;;;;;;;5.40;3.37;;;;;;;13.71;98.79;101653.56;6296934;28;20791;-72
2023/10/05 03:32:04;;;;;;;3.60;2.00;;;;;;;13.70;98.93;101662.72;6295779;28;20226;-72
2023/10/05 03:35:26;;;;;;;4.37;2.77;;;;;;;13.69;99.23;101664.53;6303632;28;20389;-72
2023/10/05 03:38:56;;;;;;;4.50;1.83;;;;;;;13.70;99.27;101651.88;6290698;28;21060;-72
2023/10/05 03:42:21;;;;;;;4.23;2.60;;;;;;;13.67;99.45;101658.41;6291366;28;20246;-72
2023/10/05 03:45:44;;;;;;;6.13;2.97;;;;;;;13.72;99.72;101647.16;6289752;28;20596;-72
2023/10/05 03:49:06;;;;;;;4.87;1.70;;;;;;;13.68;99.69;101640.31;6308200;28;20627;-72
2023/10/05 03:52:32;;;;;;;2.50;1.80;;;;;;;13.67;99.93;101642.16;6289691;28;20226;-72
2023/10/05 03:55:55;;;;;;;4.00;2.50;;;;;;;13.67;100.00;101644.00;6303093;28;20246;-72
2023/10/05 03:59:17;;;;;;;3.10;1.97;;;;;;;13.65;100.00;101641.44;6302126;28;20226;-72
2023/10/05 04:02:38;;;;;;;3.00;2.70;;;;;;;13.67;100.00;101653.00;6299748;28;20230;-72
2023/10/05 04:05:59;;;;;;;12.07;3.00;;;;;;;13.65;100.00;101652.28;6303536;28;20246;-71
2023/10/05 04:09:19;;;;;;;5.07;2.50;;;;;;;13.69;100.00;101645.56;6295629;28;20234;-72
2023/10/05 04:12:42;;;;;;;5.07;3.07;;;;;;;13.76;100.00;101654.03;6303105;28;20325;-72
2023/10/05 04:16:06;;;;;;;2.10;1.90;;;;;;;13.73;100.00;101648.88;6307839;28;20231;-72
2023/10/05 04:19:27;;;;;;;7.73;2.77;;;;;;;13.75;100.00;101653.16;6304415;28;20429;-70
2023/10/05 04:22:49;;;;;;;7.13;3.03;;;;;;;13.74;100.00;101654.16;6303224;28;20250;-71
2023/10/05 04:26:10;;;;;;;3.93;2.07;;;;;;;13.76;100.00;101640.47;6300917;28;20776;-72
2023/10/05 04:29:32;;;;;;;4.33;2.20;;;;;;;13.79;100.00;101656.47;6306120;28;20235;-72
2023/10/05 04:32:53;;;;;;;3.93;2.53;;;;;;;13.78;100.00;101658.31;6298961;28;20230;-72
2023/10/05 04:36:16;;;;;;;5.37;2.73;;;;;;;13.81;100.00;101649.91;6292876;28;20306;-72
2023/10/05 04:39:37;;;;;;;4.80;2.77;;;;;;;13.81;100.00;101649.91;6306056;28;20234;-73
2023/10/05 04:42:58;;;;;;;5.40;3.20;;;;;;;13.78;100.00;101655.59;6306218;28;20231;-72
2023/10/05 04:46:21;;;;;;;4.90;2.30;;;;;;;13.80;100.00;101645.50;6302111;28;20254;-72
2023/10/05 04:49:44;;;;;;;3.33;2.30;;;;;;;13.82;100.00;101640.78;6304533;28;20234;-73
2023/10/05 04:53:09;;;;;;;2.53;2.00;;;;;;;13.85;100.00;101653.22;6301875;28;20249;-72
2023/10/05 04:56:40;;;;;;;4.67;2.80;;;;;;;13.86;100.00;101644.94;6305990;28;20234;-72
2023/10/05 05:00:48;;;;;;;5.53;2.40;;;;;;;13.87;100.00;101653.94;6304729;28;20226;-73
2023/10/05 05:03:56;;;;;;;11.37;3.17;;;;;;;13.95;100.00;101646.81;6290485;28;20612;-73
2023/10/05 05:07:19;;;;;;;3.47;2.33;;;;;;;13.92;100.00;101654.34;6306563;28;20230;-72
2023/10/05 05:10:42;;;;;;;5.10;2.83;;;;;;;13.89;100.00;101650.09;6300231;28;20238;-72
2023/10/05 05:14:03;;;;;;;2.37;2.10;;;;;;;13.75;100.00;101646.91;6306832;28;20222;-72
2023/10/05 05:17:26;;;;;;;5.73;2.30;;;;;;;13.73;100.00;101635.31;6304170;28;20256;-72
2023/10/05 05:20:48;;;;;;;8.47;2.37;;;;;;;13.73;100.00;101638.03;6299493;28;20226;-71
2023/10/05 05:24:13;;;;;;;7.07;2.57;;;;;;;13.60;100.00;101646.44;6289544;28;20238;-71
2023/10/05 05:27:34;;;;;;;4.07;2.47;;;;;;;13.57;100.00;101628.59;6304521;28;20309;-72
2023/10/05 05:30:55;;;;;;;4.70;2.43;;;;;;;13.57;100.00;101630.44;6298740;28;20742;-71
2023/10/05 05:34:16;;;;;;;3.37;2.30;;;;;;;13.63;100.00;101622.63;6304041;28;20234;-71
2023/10/05 05:37:39;;;;;;;5.27;2.77;;;;;;;13.62;100.00;101629.00;6302575;28;20230;-71
2023/10/05 05:41:01;;;;;;;5.67;2.63;;;;;;;13.65;100.00;101625.19;6300243;28;20229;-71
2023/10/05 05:44:22;;;;;;;6.70;2.70;;;;;;;13.69;100.00;101632.03;6303194;28;20222;-71
2023/10/05 05:47:43;;;;;;;6.40;3.07;;;;;;;13.71;100.00;101634.59;6302701;28;20337;-71
2023/10/05 05:51:10;;;;;;;4.77;3.10;;;;;;;13.74;100.00;101634.34;6291024;28;20306;-72
2023/10/05 05:54:33;;;;;;;5.87;3.53;;;;;;;13.64;100.00;101631.59;6302537;28;20242;-71
2023/10/05 05:57:55;;;;;;;5.00;2.80;;;;;;;13.64;100.00;101639.72;6308677;28;20308;-71
2023/10/05 06:01:16;;;;;;;5.33;2.60;;;;;;;13.71;100.00;101640.88;6297514;28;20234;-71
2023/10/05 06:04:38;;;;;;;4.90;2.20;;;;;;;13.75;100.00;101645.03;6298013;28;20262;-71
2023/10/05 06:08:01;;;;;;;12.00;3.40;;;;;;;13.70;100.00;101647.31;6304338;28;20230;-71
2023/10/05 06:11:23;;;;;;;3.63;2.67;;;;;;;13.70;100.00;101660.88;6295624;28;20227;-71
2023/10/05 06:14:44;;;;;;;4.00;2.37;;;;;;;13.71;100.00;101650.84;6302331;28;20707;-71
2023/10/05 06:18:07;;;;;;;4.77;2.63;;;;;;;13.67;100.00;101655.69;6301932;28;20222;-72
2023/10/05 06:21:28;;;;;;;6.17;2.43;;;;;;;13.54;100.00;101653.22;6306075;28;20242;-71
2023/10/05 06:24:50;;;;;;;7.57;3.27;;;;;;;13.60;100.00;101666.22;6301443;28;20225;-72
2023/10/05 06:28:13;;;;;;;4.30;2.33;;;;;;;13.59;100.00;101663.66;6300239;28;20270;-71
2023/10/05 06:31:33;;;;;;;7.93;2.97;;;;;;;13.59;100.00;101664.53;6300267;28;20286;-72
2023/10/05 06:34:54;;;;;;;9.40;3.50;;;;;;;13.64;100.00;101673.09;6302319;28;20230;-72
2023/10/05 06:38:16;;;;;;;9.73;3.23;;;;;;;13.66;100.00;101674.81;6297055;28;20234;-72
2023/10/05 06:41:37;;;;;;;4.20;2.87;;;;;;;13.61;100.00;101681.50;6303696;28;20222;-72
2023/10/05 06:45:00;;;;;;;6.67;3.57;;;;;;;13.56;100.00;101691.88;6297898;28;20230;-73
2023/10/05 06:48:21;;;;;;;6.47;3.27;;;;;;;13.63;100.00;101697.63;6301561;28;20253;-72
2023/10/05 06:51:43;;;;;;;5.03;2.30;;;;;;;13.61;100.00;101708.59;6304912;28;20731;-71
2023/10/05 06:55:07;;;;;;;3.97;2.13;;;;;;;13.59;100.00;101717.84;6267485;28;20230;-72
2023/10/05 06:58:28;;;;;;;8.27;3.83;;;;;;;13.68;100.00;101721.59;6296190;28;20812;-72
2023/10/05 07:01:52;;;;;;;3.33;3.00;;;;;;;13.97;100.00;101730.72;6299850;28;20231;-73
2023/10/05 07:05:14;;;;;;;4.00;2.30;;;;;;;14.09;100.00;101746.75;6294587;28;20227;-73
2023/10/05 07:08:34;;;;;;;4.20;2.83;;;;;;;14.17;100.00;101751.47;6280204;28;20223;-75
2023/10/05 07:11:55;;;;;;;6.13;2.77;;;;;;;14.14;100.00;101754.47;6284428;28;20508;-76
2023/10/05 07:15:17;;;;;;;4.47;2.33;;;;;;;14.17;100.00;101770.44;6299788;28;20254;-76
2023/10/05 07:18:40;;;;;;;3.63;2.13;;;;;;;14.39;100.00;101771.13;6294063;28;20222;-74
2023/10/05 07:22:02;;;;;;;3.37;2.23;;;;;;;14.36;100.00;101767.84;6285956;28;20481;-76
2023/10/05 07:25:23;;;;;;;3.60;2.77;;;;;;;14.36;100.00;101782.25;6304074;28;20253;-76
2023/10/05 07:28:44;;;;;;;2.73;2.53;;;;;;;14.43;100.00;101785.28;6292862;28;20231;-75
2023/10/05 07:32:06;;;;;;;1.97;1.70;;;;;;;14.40;100.00;101796.41;6299424;28;20608;-75
2023/10/05 07:35:29;;;;;;;2.37;1.93;;;;;;;14.31;100.00;101795.38;6302926;28;20215;-74
2023/10/05 07:38:50;;;;;;;2.77;1.37;;;;;;;14.24;100.00;101807.75;6282243;28;20230;-76
2023/10/05 07:42:11;;;;;;;3.67;1.77;;;;;;;14.25;100.00;101792.31;6297413;28;21247;-77
2023/10/05 07:45:32;;;;;;;1.97;1.40;;;;;;;14.35;100.00;101806.81;6298011;28;20595;-77
2023/10/05 07:48:53;;;;;;;2.03;1.60;;;;;;;14.22;100.00;101817.88;6299162;28;20230;-77
2023/10/05 07:52:16;;;;;;;3.43;1.67;;;;;;;14.12;100.00;101818.84;6286642;28;20226;-76
2023/10/05 07:55:37;;;;;;;4.17;2.30;;;;;;;14.02;100.00;101832.31;6299762;28;20520;-77
2023/10/05 07:58:58;;;;;;;2.03;1.10;;;;;;;14.10;100.00;101837.94;6298562;28;20249;-77
2023/10/05 08:02:19;;;;;;;2.20;1.70;;;;;;;14.10;100.00;101832.50;6297843;28;20226;-76
2023/10/05 08:05:40;;;;;;;3.33;1.33;;;;;;;14.18;100.00;101830.00;6269844;28;20238;-76
2023/10/05 08:09:05;;;;;;;1.80;1.43;;;;;;;14.27;100.00;101825.59;6284780;28;20250;-76
2023/10/05 08:12:27;;;;;;;2.20;1.17;;;;;;;14.23;100.00;101826.84;6296981;28;20717;-75
2023/10/05 08:15:48;;;;;;;2.03;1.80;;;;;;;14.21;100.00;101832.41;6298189;28;20238;-73
2023/10/05 08:19:09;;;;;;;1.43;1.33;;;;;;;14.26;100.00;101837.44;6289069;28;20234;-72
2023/10/05 08:22:30;;;;;;;1.30;1.30;;;;;;;14.28;100.00;101839.06;6298712;28;20230;-71
2023/10/05 08:25:52;;;;;;;1.07;0.97;;;;;;;14.26;100.00;101841.03;6299923;28;20505;-70
2023/10/05 08:29:14;;;;;;;1.93;1.40;;;;;;;14.04;100.00;101845.78;6300375;28;20231;-73
2023/10/05 08:32:36;;;;;;;1.10;1.00;;;;;;;14.17;100.00;101860.81;6302400;28;20230;-72
2023/10/05 08:35:57;;;;;;;1.33;1.23;;;;;;;14.25;100.00;101862.84;6307677;28;20230;-72
2023/10/05 08:39:25;;;;;;;1.43;0.87;;;;;;;14.34;100.00;101862.94;6305888;28;20227;-71
2023/10/05 08:42:50;;;;;;;5.30;1.40;;;;;;;14.43;100.00;101874.81;6287026;28;20318;-79
2023/10/05 08:46:11;;;;;;;1.20;1.10;;;;;;;14.60;100.00;101878.75;6306417;28;20514;-70
2023/10/05 08:49:34;;;;;;;0.77;0.73;;;;;;;14.80;100.00;101884.09;6301917;28;20250;-74
2023/10/05 08:52:55;;;;;;;1.00;1.00;;;;;;;14.77;100.00;101887.06;6288799;28;20223;-70
2023/10/05 08:56:16;;;;;;;3.43;1.40;;;;;;;14.78;100.00;101890.66;6298295;28;20234;-74
2023/10/05 08:59:39;;;;;;;1.97;1.57;;;;;;;14.88;100.00;101907.81;6305008;28;20223;-73
2023/10/05 09:03:00;;;;;;;0.80;0.80;;;;;;;14.88;100.00;101903.25;6305761;28;20257;-76
2023/10/05 09:06:21;;;;;;;2.00;1.20;;;;;;;14.92;100.00;101912.84;6300998;28;20226;-74
2023/10/05 09:09:54;;;;;;;3.97;1.33;;;;;;;14.80;100.00;101908.53;6298854;28;20226;-73
2023/10/05 09:13:14;;;;;;;2.43;1.40;;;;;;;14.83;100.00;101902.78;6301392;28;20533;-78
2023/10/05 09:16:41;;;;;;;2.83;1.00;;;;;;;15.00;100.00;101909.41;6281966;28;20223;-77
2023/10/05 09:20:21;;;;;;;3.87;1.43;;;;;;;15.18;100.00;101910.47;6303321;28;21111;-75
2023/10/05 09:23:43;;;;;;;1.50;1.00;;;;;;;15.38;100.00;101914.91;6301876;28;20308;-72
2023/10/05 09:27:12;;;;;;;2.10;1.07;;;;;;;15.28;100.00;101927.66;6295124;28;20235;-71
2023/10/05 09:30:34;;;;;;;2.03;0.93;;;;;;;15.67;100.00;101932.13;6301781;28;20498;-73
2023/10/05 09:34:05;;;;;;;2.63;1.40;;;;;;;15.86;100.00;101939.41;6286260;28;20230;-75
2023/10/05 09:37:29;;;;;;;3.00;1.50;;;;;;;16.60;100.00;101935.00;6292297;28;20253;-74
2023/10/05 09:40:53;;;;;;;1.17;1.03;;;;;;;17.03;100.00;101943.41;6292769;28;20600;-74
2023/10/05 09:44:16;;;;;;;1.30;1.10;;;;;;;17.82;100.00;101946.31;6303338;28;21133;-73
2023/10/05 09:47:38;;;;;;;2.03;1.77;;;;;;;17.72;100.00;101953.72;6293925;28;20231;-69
2023/10/05 09:51:00;;;;;;;1.33;1.08;;;;;;;17.92;100.00;101947.94;6295350;28;20681;-71
2023/10/05 09:54:26;;;;;;;0.50;0.50;;;;;;;19.20;97.87;101940.72;6293629;28;20230;-71
2023/10/05 09:57:51;;;;;;;2.13;0.88;;;;;;;21.88;86.59;101948.09;6295182;28;20341;-72
2023/10/05 10:01:20;;;;;;;1.85;1.08;;;;;;;23.83;71.71;101951.16;6271809;28;20227;-69
2023/10/05 10:04:42;;;;;;;2.45;1.00;;;;;;;24.16;65.41;101957.00;6301949;28;20229;-70
2023/10/05 10:08:09;;;;;;;1.58;1.08;;;;;;;27.08;57.00;101956.50;6293111;28;20616;-66
2023/10/05 10:11:31;;;;;;;3.22;1.02;;;;;;;28.25;52.89;101963.31;6294643;28;20262;-72
2023/10/05 10:14:58;;;;;;;3.75;1.00;;;;;;;29.58;49.37;101960.63;6293499;28;20344;-71
2023/10/05 10:18:29;;;;;;;3.25;1.35;;;;;;;30.50;45.92;101964.84;6298123;28;20235;-69
2023/10/05 10:21:59;;;;;;;1.42;1.02;;;;;;;28.19;48.17;101954.00;6304611;28;20292;-71
2023/10/05 10:25:38;;;;;;;2.38;1.30;;;;;;;28.59;48.04;101964.78;6307039;28;20230;-72
2023/10/05 10:29:05;;;;;;;2.97;1.20;;;;;;;29.69;44.95;101959.84;6302457;28;20234;-72
2023/10/05 10:32:31;;;;;;;2.22;1.45;;;;;;;27.30;48.66;101958.75;6300300;28;20231;-74
2023/10/05 10:35:52;;;;;;;4.47;1.27;;;;;;;28.22;48.78;101958.25;6306079;28;20218;-73
2023/10/05 10:39:23;;;;;;;1.45;0.70;;;;;;;25.74;50.16;101966.03;6302038;28;20231;-71
2023/10/05 10:42:54;;;;;;;3.60;1.73;;;;;;;25.90;52.33;101973.97;6306396;28;20234;-72
2023/10/05 10:46:28;;;;;;;2.55;1.63;;;;;;;26.36;51.77;101975.94;6305463;28;20226;-72
2023/10/05 10:50:14;;;;;;;2.88;1.67;;;;;;;23.68;56.21;101981.50;6303170;28;20255;-72
2023/10/05 10:53:39;;;;;;;3.72;1.73;;;;;;;23.19;58.94;101985.09;6304118;28;20612;-73
2023/10/05 10:57:00;;;;;;;3.25;1.83;;;;;;;24.55;57.53;101988.53;6312695;28;20361;-71
2023/10/05 11:00:54;;;;;;;3.40;1.17;;;;;;;25.80;52.41;101990.09;6307044;28;20231;-72
2023/10/05 11:04:25;;;;;;;3.60;1.33;;;;;;;21.91;63.04;102010.03;6303900;28;20599;-70
2023/10/05 11:07:46;;;;;;;2.30;1.92;;;;;;;22.37;63.09;102002.63;6302957;28;20246;-73
2023/10/05 11:11:09;;;;;;;4.90;2.25;;;;;;;22.21;62.07;101993.50;6312154;28;20234;-73
2023/10/05 11:14:32;;;;;;;3.97;1.63;;;;;;;26.04;53.36;101985.88;6307145;28;20238;-72
2023/10/05 11:17:58;;;;;;;4.85;2.10;;;;;;;27.95;48.72;101987.22;6307329;28;20234;-72
2023/10/05 11:21:24;;;;;;;3.92;2.28;;;;;;;29.20;44.32;101990.66;6310154;28;20235;-71
2023/10/05 11:25:14;;;;;;;4.03;1.38;;;;;;;30.40;41.55;101989.59;6285328;28;20528;-72
2023/10/05 11:28:35;;;;;;;3.08;1.67;;;;;;;30.11;41.66;101991.34;6307917;28;20230;-72
2023/10/05 11:32:01;;;;;;;2.30;1.67;;;;;;;30.67;41.59;101982.50;6302593;28;20231;-72
2023/10/05 11:35:42;;;;;;;3.15;1.92;;;;;;;29.70;40.95;101986.56;6309133;28;20238;-70
2023/10/05 11:39:03;;;;;;;2.75;1.20;;;;;;;30.05;40.87;101997.84;6302702;28;20706;-71
2023/10/05 11:42:24;;;;;;;1.60;0.93;;;;;;;30.89;38.65;101993.91;6301934;28;20262;-73
2023/10/05 11:46:12;;;;;;;3.45;1.73;;;;;;;30.79;38.11;101995.31;6305253;28;20616;-71
2023/10/05 11:49:34;;;;;;;4.22;1.17;;;;;;;30.36;39.28;101993.97;6306819;28;20242;-73
2023/10/05 11:52:56;;;;;;;2.88;1.27;;;;;;;28.89;41.01;101988.78;6301660;28;20223;-72
2023/10/05 11:56:20;;;;;;;4.32;1.80;;;;;;;29.06;40.57;101992.69;6290558;28;20686;-73
2023/10/05 11:59:42;;;;;;;2.80;1.25;;;;;;;28.88;40.04;101995.44;6294056;28;20326;-72
2023/10/05 12:03:02;;;;;;;3.50;1.40;;;;;;;27.48;42.63;102005.16;6299162;28;20317;-73
2023/10/05 12:06:25;;;;;;;3.17;1.70;;;;;;;30.07;38.38;102005.97;6304882;28;20235;-72
2023/10/05 12:09:47;;;;;;;3.67;1.27;;;;;;;31.34;35.79;102003.28;6302107;28;20651;-72
2023/10/05 12:13:08;;;;;;;1.92;1.27;;;;;;;31.07;35.74;102007.69;6295398;28;20254;-73
2023/10/05 12:16:32;;;;;;;4.40;3.00;;;;;;;32.31;35.03;102003.03;6292123;28;20234;-72
2023/10/05 12:19:54;;;;;;;4.43;4.03;;;;;;;32.00;34.41;102011.16;6306268;28;20254;-73
2023/10/05 12:23:15;;;;;;;6.45;1.50;;;;;;;30.57;35.83;102012.88;6292127;28;20231;-73
2023/10/05 12:26:39;;;;;;;2.35;1.17;;;;;;;30.58;36.34;102012.63;6297534;28;20231;-74
2023/10/05 12:30:00;;;;;;;1.65;1.08;;;;;;;31.24;36.11;102022.59;6303269;28;20222;-73
2023/10/05 12:33:21;;;;;;;3.20;1.20;;;;;;;30.51;34.74;102011.06;6302900;28;20227;-73
2023/10/05 12:36:43;;;;;;;2.83;1.27;;;;;;;29.53;34.49;102013.31;6278870;28;20235;-74
2023/10/05 12:40:17;;;;;;;4.75;1.05;;;;;;;30.01;34.56;102010.53;6300366;28;20235;-73
2023/10/05 12:43:40;;;;;;;2.40;1.02;;;;;;;29.09;36.23;102006.13;6296556;28;20568;-73
2023/10/05 12:47:01;;;;;;;2.78;1.02;;;;;;;28.00;37.39;102004.91;6302130;28;20234;-73
2023/10/05 12:50:24;;;;;;;5.55;1.67;;;;;;;29.57;35.73;102013.69;6301551;28;20317;-73
2023/10/05 12:53:45;;;;;;;2.33;1.27;;;;;;;29.37;35.27;102010.31;6303561;28;20246;-73
2023/10/05 12:57:10;;;;;;;2.22;1.20;;;;;;;28.77;37.29;102006.44;6303783;28;20250;-74
2023/10/05 13:00:39;;;;;;;3.55;1.17;;;;;;;26.23;39.75;102022.94;6302341;28;20313;-73
2023/10/05 13:04:01;;;;;;;3.08;1.20;;;;;;;25.17;41.68;102027.19;6297917;28;20233;-75
2023/10/05 13:07:26;;;;;;;1.95;1.00;;;;;;;24.82;43.63;102021.88;6294434;28;20231;-73
2023/10/05 13:10:48;;;;;;;2.85;1.15;;;;;;;26.01;42.10;102022.25;6301726;28;20234;-72
2023/10/05 13:14:09;;;;;;;4.53;1.90;;;;;;;24.70;43.54;102024.28;6282310;28;20219;-74
2023/10/05 13:17:35;;;;;;;3.33;1.02;;;;;;;26.69;43.02;102023.81;6284808;28;20226;-72
2023/10/05 13:20:57;;;;;;;2.80;1.50;;;;;;;27.08;41.05;102026.56;6298013;28;20505;-71
2023/10/05 13:24:20;;;;;;;3.33;1.80;;;;;;;26.62;40.05;102031.25;6297384;28;20364;-72
2023/10/05 13:27:42;;;;;;;1.58;1.00;;;;;;;28.81;37.43;102027.16;6296621;28;20639;-72
2023/10/05 13:31:06;;;;;;;2.88;1.05;;;;;;;27.82;37.85;102032.50;6299991;28;20231;-72
2023/10/05 13:34:30;;;;;;;1.98;0.90;;;;;;;28.08;37.96;102032.38;6305264;28;20230;-72
2023/10/05 13:37:51;;;;;;;4.57;1.10;;;;;;;27.92;38.54;102030.09;6301629;28;20234;-72
2023/10/05 13:41:14;;;;;;;3.00;1.45;;;;;;;26.07;40.56;102044.44;6301961;28;20230;-71
2023/10/05 13:44:35;;;;;;;3.45;1.10;;;;;;;25.02;41.17;102043.03;6290690;28;20254;-72
2023/10/05 13:47:57;;;;;;;3.13;0.80;;;;;;;25.84;39.86;102037.50;6292780;28;20293;-72
2023/10/05 13:51:19;;;;;;;2.55;1.27;;;;;;;25.30;41.34;102031.94;6304645;28;20226;-73
2023/10/05 13:54:40;;;;;;;3.67;1.63;;;;;;;26.05;40.99;102026.31;6300001;28;20243;-72
2023/10/05 13:58:02;;;;;;;2.08;0.80;;;;;;;26.01;39.62;102038.84;6305215;28;20238;-72
2023/10/05 14:01:23;;;;;;;3.13;1.42;;;;;;;27.61;38.01;102041.13;6302809;28;20222;-73
2023/10/05 14:04:44;;;;;;;3.75;1.60;;;;;;;26.34;40.11;102042.56;6300045;28;20230;-73
2023/10/05 14:08:10;;;;;;;1.08;0.95;;;;;;;23.65;44.02;102050.78;6299068;28;20285;-72
2023/10/05 14:11:31;;;;;;;3.00;1.77;;;;;;;25.65;41.72;102047.44;6307637;28;20223;-72
2023/10/05 14:14:52;;;;;;;4.50;1.35;;;;;;;26.31;39.99;102040.19;6297730;28;20332;-72
2023/10/05 14:18:16;;;;;;;2.65;1.38;;;;;;;26.31;40.24;102050.41;6300148;28;20539;-72
2023/10/05 14:21:37;;;;;;;2.78;0.82;;;;;;;26.28;39.72;102048.06;6300186;28;20234;-72
2023/10/05 14:25:07;;;;;;;3.20;1.90;;;;;;;25.94;41.06;102032.44;6301299;28;20724;-73
2023/10/05 14:28:27;;;;;;;3.00;1.67;;;;;;;26.81;39.83;102044.28;6303878;28;20249;-73
2023/10/05 14:31:52;;;;;;;0.75;0.68;;;;;;;25.53;40.25;102046.34;6305584;28;20440;-73
2023/10/05 14:35:15;;;;;;;1.30;0.90;;;;;;;24.52;41.99;102052.38;6274305;28;20230;-73
2023/10/05 14:38:35;;;;;;;8.30;1.80;;;;;;;23.64;44.34;102062.81;6299987;28;20592;-73
2023/10/05 14:41:59;;;;;;;2.53;1.30;;;;;;;23.59;45.02;102062.53;6300712;28;20313;-71
2023/10/05 14:45:24;;;;;;;2.45;1.55;;;;;;;23.56;45.77;102065.69;6299531;28;20234;-72
2023/10/05 14:48:45;;;;;;;3.80;1.40;;;;;;;23.40;46.67;102062.28;6301345;28;20227;-72
2023/10/05 14:52:06;;;;;;;2.38;1.27;;;;;;;22.13;49.31;102075.97;6292103;28;20527;-71
2023/10/05 14:55:27;;;;;;;2.10;1.20;;;;;;;22.14;49.99;102074.09;6297071;28;20321;-72
2023/10/05 14:58:49;;;;;;;6.35;1.55;;;;;;;22.40;49.53;102076.47;6303597;28;20524;-73
2023/10/05 15:02:10;;;;;;;2.85;1.60;;;;;;;22.65;50.31;102083.50;6300146;28;20223;-73
2023/10/05 15:05:31;;;;;;;3.63;1.83;;;;;;;22.23;51.36;102082.09;6297769;28;20226;-72
2023/10/05 15:08:52;;;;;;;4.63;3.85;;;;;;;22.03;51.84;102080.84;6300002;28;20318;-72
2023/10/05 15:12:13;;;;;;;5.93;1.67;;;;;;;22.34;51.78;102077.22;6303699;28;20257;-72
2023/10/05 15:15:36;;;;;;;3.22;1.55;;;;;;;21.99;53.17;102081.38;6303177;28;20230;-72
2023/10/05 15:18:58;;;;;;;3.75;1.83;;;;;;;21.90;53.21;102091.59;6303916;28;20590;-72
2023/10/05 15:22:19;;;;;;;1.92;1.27;;;;;;;21.76;53.53;102086.81;6303621;28;20242;-71
2023/10/05 15:25:40;;;;;;;5.28;1.90;;;;;;;21.16;54.55;102082.94;6303985;28;20262;-71
2023/10/05 15:29:02;;;;;;;4.80;1.70;;;;;;;20.24;56.45;102085.19;6307819;28;20768;-72
2023/10/05 15:32:24;;;;;;;5.03;1.83;;;;;;;20.56;57.01;102083.34;6303728;28;21319;-71
2023/10/05 15:35:45;;;;;;;3.63;2.13;;;;;;;20.48;58.18;102091.56;6296074;28;20286;-71
2023/10/05 15:39:09;;;;;;;4.38;1.73;;;;;;;20.09;59.06;102087.69;6308163;28;20607;-71
2023/10/05 15:42:30;;;;;;;5.07;1.40;;;;;;;19.79;61.03;102093.78;6297322;28;20230;-71